Time;durP1;ratioP1;P1;durP2;ratioP2;P2;SDS_P1;SDS_P2;PMS_P1;PMS_P2;Temp;Humidity;BMP_temperature;BMP_pressure;BME280_temperature;BME280_humidity;BME280_pressure;Samples;Min_cycle;Max_cycle;Signal;HPM_P1;HPM_P2
2022/01/15 00:01:40;;;;;;;43.87;19.57;;;7.60;82.90;;;;;;5089631;28;20067;-67
2022/01/15 00:04:05;;;;;;;38.70;18.53;;;7.60;83.00;;;;;;5087387;28;20060;-67
2022/01/15 00:06:31;;;;;;;39.13;19.53;;;7.60;83.00;;;;;;5087699;28;20070;-67
2022/01/15 00:08:57;;;;;;;42.90;19.93;;;7.60;83.00;;;;;;5095873;28;20029;-67
2022/01/15 00:11:23;;;;;;;45.17;19.43;;;7.60;83.00;;;;;;5093178;28;20028;-67
2022/01/15 00:14:11;;;;;;;33.60;16.67;;;7.60;83.00;;;;;;5082319;28;20088;-68
2022/01/15 00:16:56;;;;;;;33.57;16.00;;;7.60;83.10;;;;;;5076208;28;20020;-68
2022/01/15 00:19:32;;;;;;;32.50;16.20;;;7.50;83.00;;;;;;5079849;28;20027;-68
2022/01/15 00:21:57;;;;;;;38.63;16.27;;;7.50;83.00;;;;;;5094435;28;20028;-67
2022/01/15 00:24:24;;;;;;;35.67;17.20;;;7.50;83.00;;;;;;5093929;28;20131;-67
2022/01/15 00:26:50;;;;;;;36.80;18.37;;;7.50;83.10;;;;;;5094278;28;20024;-67
2022/01/15 00:29:16;;;;;;;42.80;20.00;;;7.50;83.00;;;;;;5095395;28;20080;-67
2022/01/15 00:31:42;;;;;;;39.43;18.93;;;7.50;83.10;;;;;;5093043;28;20043;-67
2022/01/15 00:34:07;;;;;;;38.40;19.00;;;7.50;83.10;;;;;;5087157;28;20032;-67
2022/01/15 00:36:33;;;;;;;35.07;18.03;;;7.50;83.10;;;;;;5095416;28;20164;-67
2022/01/15 00:38:59;;;;;;;33.73;16.60;;;7.50;83.10;;;;;;5067732;28;20032;-67
2022/01/15 00:41:25;;;;;;;38.43;16.77;;;7.50;83.80;;;;;;5094371;28;20028;-67
2022/01/15 00:43:51;;;;;;;39.27;18.70;;;7.50;83.10;;;;;;5093958;28;20360;-67
2022/01/15 00:46:17;;;;;;;33.83;17.07;;;7.40;83.10;;;;;;5094461;28;20036;-67
2022/01/15 00:48:42;;;;;;;36.73;17.83;;;7.40;83.10;;;;;;5093572;28;20032;-67
2022/01/15 00:51:08;;;;;;;35.40;17.13;;;7.50;83.20;;;;;;5094421;28;20050;-67
2022/01/15 00:53:33;;;;;;;37.23;18.23;;;7.50;83.30;;;;;;5094267;28;20055;-67
2022/01/15 00:55:59;;;;;;;36.70;17.37;;;7.50;83.20;;;;;;5095128;28;20052;-67
2022/01/15 00:58:24;;;;;;;33.53;16.13;;;7.50;83.20;;;;;;5093854;28;20471;-67
2022/01/15 01:00:50;;;;;;;35.63;17.33;;;7.50;83.20;;;;;;5077173;28;20016;-67
2022/01/15 01:03:16;;;;;;;36.73;17.33;;;7.50;83.20;;;;;;5094350;28;20111;-67
2022/01/15 01:05:41;;;;;;;37.50;17.33;;;7.40;83.10;;;;;;5094153;28;20089;-67
2022/01/15 01:08:07;;;;;;;37.93;17.63;;;7.40;83.10;;;;;;5094389;28;20065;-67
2022/01/15 01:10:50;;;;;;;33.03;16.10;;;7.40;83.10;;;;;;5093678;28;20020;-67
2022/01/15 01:22:15;;;;;;;31.30;14.40;;;7.30;83.10;;;;;;5094839;28;20036;-67
2022/01/15 01:24:20;;;;;;;33.60;14.00;;;7.40;83.20;;;;;;5081693;28;20035;-67
2022/01/15 01:26:56;;;;;;;29.17;14.13;;;7.30;83.20;;;;;;5074781;28;20043;-67
2022/01/15 01:29:33;;;;;;;28.47;12.90;;;7.30;83.80;;;;;;5090708;28;20032;-67
2022/01/15 01:32:10;;;;;;;29.27;13.50;;;7.30;83.10;;;;;;5094642;28;20073;-67
2022/01/15 01:34:39;;;;;;;30.20;13.00;;;7.30;83.10;;;;;;5093147;28;20042;-67
2022/01/15 01:37:21;;;;;;;32.27;14.30;;;7.30;83.10;;;;;;5094400;28;20039;-67
2022/01/15 01:42:40;;;;;;;31.00;14.97;;;7.30;83.10;;;;;;5093189;28;20032;-67
2022/01/15 01:45:14;;;;;;;33.07;14.57;;;7.30;83.10;;;;;;5093650;28;20402;-67
2022/01/15 01:47:42;;;;;;;33.87;15.67;;;7.30;83.10;;;;;;5077428;28;20024;-67
2022/01/15 01:50:23;;;;;;;32.70;14.70;;;7.20;83.10;;;;;;5092612;28;20051;-67
2022/01/15 01:52:54;;;;;;;32.33;14.38;;;7.30;83.10;;;;;;5091742;28;20043;-67
2022/01/15 01:55:24;;;;;;;32.93;13.27;;;7.20;83.10;;;;;;5093901;28;20466;-67
2022/01/15 01:57:52;;;;;;;28.80;13.07;;;7.20;83.10;;;;;;5093771;28;20024;-67
2022/01/15 02:00:20;;;;;;;28.53;13.23;;;7.20;83.10;;;;;;5094060;28;20459;-67
2022/01/15 02:02:50;;;;;;;25.00;10.63;;;7.20;83.10;;;;;;5093637;28;20032;-67
2022/01/15 02:05:17;;;;;;;26.63;12.23;;;7.20;83.00;;;;;;5093254;28;20047;-67
2022/01/15 02:07:43;;;;;;;25.63;12.27;;;7.20;83.00;;;;;;5094408;28;20051;-67
2022/01/15 02:10:12;;;;;;;28.77;12.63;;;7.20;83.00;;;;;;5085295;28;20464;-67
2022/01/15 02:12:39;;;;;;;26.30;11.90;;;7.20;82.90;;;;;;5093716;28;20024;-67
2022/01/15 02:15:16;;;;;;;27.93;11.40;;;7.20;82.90;;;;;;5091686;28;20024;-67
2022/01/15 02:17:44;;;;;;;24.37;11.43;;;7.20;82.80;;;;;;5094405;28;20036;-67
2022/01/15 02:20:35;;;;;;;20.97;9.73;;;7.20;82.80;;;;;;5093781;28;20035;-67
2022/01/15 02:25:56;;;;;;;25.93;10.77;;;7.20;82.80;;;;;;5085148;28;20158;-67
2022/01/15 02:28:25;;;;;;;26.07;11.57;;;7.10;82.80;;;;;;5092450;28;20048;-67
2022/01/15 02:30:55;;;;;;;27.77;12.53;;;7.10;82.80;;;;;;5085152;28;20111;-67
2022/01/15 02:33:21;;;;;;;24.07;11.30;;;7.10;82.80;;;;;;5093719;28;20028;-67
2022/01/15 02:35:47;;;;;;;24.60;10.53;;;7.10;82.90;;;;;;5093517;28;20067;-67
2022/01/15 02:38:12;;;;;;;23.83;10.83;;;7.10;82.80;;;;;;5093825;28;20462;-67
2022/01/15 02:40:38;;;;;;;26.33;11.77;;;7.10;82.80;;;;;;5092047;28;20028;-67
2022/01/15 02:43:11;;;;;;;26.53;10.97;;;7.10;82.70;;;;;;5093628;28;20024;-67
2022/01/15 02:45:38;;;;;;;25.10;10.63;;;7.10;82.60;;;;;;5102485;28;20110;-67
2022/01/15 02:48:17;;;;;;;22.07;11.10;;;7.10;82.60;;;;;;5073726;28;20047;-67
2022/01/15 02:50:44;;;;;;;24.30;10.90;;;7.10;82.60;;;;;;5091235;28;20032;-67
2022/01/15 02:53:12;;;;;;;20.87;9.97;;;7.00;82.60;;;;;;5096215;28;20039;-68
2022/01/15 02:55:50;;;;;;;20.53;9.50;;;7.00;82.70;;;;;;5096197;28;20111;-67
2022/01/15 02:58:18;;;;;;;20.57;9.83;;;7.00;82.60;;;;;;5079752;28;20039;-67
2022/01/15 03:00:45;;;;;;;22.13;9.73;;;7.00;82.60;;;;;;5096741;28;20028;-67
2022/01/15 03:03:11;;;;;;;21.50;10.07;;;7.00;82.70;;;;;;5096005;28;20115;-67
2022/01/15 03:05:36;;;;;;;20.20;8.87;;;7.00;82.70;;;;;;5096248;28;20525;-67
2022/01/15 03:08:03;;;;;;;18.80;8.73;;;7.00;82.70;;;;;;5097506;28;20032;-67
2022/01/15 03:10:28;;;;;;;20.40;9.30;;;7.00;82.60;;;;;;5095985;28;20047;-67
2022/01/15 03:12:56;;;;;;;21.20;9.70;;;7.00;82.60;;;;;;5097078;28;20036;-67
2022/01/15 03:15:21;;;;;;;19.30;9.17;;;7.00;82.50;;;;;;5095597;28;20032;-67
2022/01/15 03:17:48;;;;;;;22.23;9.03;;;7.00;82.50;;;;;;5095796;28;20024;-67
2022/01/15 03:20:19;;;;;;;20.73;8.70;;;7.00;82.50;;;;;;5085120;28;20123;-68
2022/01/15 03:22:45;;;;;;;22.08;9.35;;;7.00;82.60;;;;;;5095799;28;20043;-67
2022/01/15 03:25:12;;;;;;;23.00;10.27;;;7.00;82.50;;;;;;5095176;28;20066;-67
2022/01/15 03:27:38;;;;;;;18.70;8.70;;;7.00;82.50;;;;;;5096952;28;20127;-67
2022/01/15 03:30:09;;;;;;;21.67;9.50;;;7.00;82.40;;;;;;5096722;28;20028;-67
2022/01/15 03:32:35;;;;;;;21.98;9.45;;;7.00;82.40;;;;;;5096150;28;20023;-67
2022/01/15 03:35:01;;;;;;;22.97;9.47;;;7.00;82.40;;;;;;5095250;28;20420;-67
2022/01/15 03:37:26;;;;;;;25.33;11.10;;;7.00;82.40;;;;;;5095479;28;20032;-67
2022/01/15 03:39:52;;;;;;;21.90;9.37;;;7.00;82.40;;;;;;5078657;28;20024;-67
2022/01/15 03:42:18;;;;;;;22.67;9.27;;;7.00;82.40;;;;;;5094103;28;20045;-67
2022/01/15 03:44:48;;;;;;;22.80;9.20;;;7.00;82.30;;;;;;5096344;28;20149;-67
2022/01/15 03:47:16;;;;;;;24.23;8.57;;;7.00;82.40;;;;;;5095032;28;20065;-67
2022/01/15 03:49:42;;;;;;;20.83;9.00;;;7.00;82.40;;;;;;5095706;28;20383;-67
2022/01/15 03:52:08;;;;;;;17.37;8.17;;;7.00;82.40;;;;;;5095586;28;20024;-67
2022/01/15 03:54:35;;;;;;;22.43;9.27;;;6.90;82.40;;;;;;5087530;28;20032;-67
2022/01/15 03:57:01;;;;;;;20.67;8.60;;;6.90;82.50;;;;;;5094984;28;20032;-67
2022/01/15 03:59:27;;;;;;;15.60;7.07;;;6.90;82.40;;;;;;5096459;28;20367;-67
2022/01/15 04:01:53;;;;;;;16.00;7.20;;;6.90;82.40;;;;;;5092820;28;20494;-67
2022/01/15 04:04:19;;;;;;;16.60;7.23;;;6.90;82.40;;;;;;5096069;28;20028;-67
2022/01/15 04:06:45;;;;;;;15.13;6.73;;;6.90;82.40;;;;;;5095636;28;20028;-67
2022/01/15 04:09:11;;;;;;;15.93;7.60;;;6.90;82.40;;;;;;5096458;28;20107;-67
2022/01/15 04:11:38;;;;;;;17.47;8.10;;;6.90;82.40;;;;;;5095431;28;20036;-67
2022/01/15 04:14:05;;;;;;;14.87;6.67;;;6.80;82.40;;;;;;5095549;28;20533;-67
2022/01/15 04:16:30;;;;;;;16.50;7.53;;;6.80;82.40;;;;;;5095621;28;20031;-67
2022/01/15 04:18:57;;;;;;;16.40;7.80;;;6.80;82.40;;;;;;5094823;28;20032;-67
2022/01/15 04:21:23;;;;;;;14.03;6.50;;;6.80;82.40;;;;;;5094160;28;20032;-67
2022/01/15 04:23:49;;;;;;;16.77;7.40;;;6.80;82.40;;;;;;5092417;28;20024;-67
2022/01/15 04:26:14;;;;;;;14.40;7.30;;;6.80;82.40;;;;;;5094107;28;20404;-67
2022/01/15 04:28:41;;;;;;;16.00;6.90;;;6.70;82.40;;;;;;5093082;28;20127;-67
2022/01/15 04:31:08;;;;;;;16.53;8.30;;;6.70;82.50;;;;;;5094012;28;20543;-67
2022/01/15 04:33:36;;;;;;;15.57;8.20;;;6.80;82.50;;;;;;5093424;28;20174;-67
2022/01/15 04:36:03;;;;;;;16.40;9.07;;;6.80;82.40;;;;;;5093638;28;20077;-67
2022/01/15 04:38:31;;;;;;;18.70;10.07;;;6.80;82.40;;;;;;5092931;28;20020;-67
2022/01/15 04:40:57;;;;;;;14.53;7.53;;;6.80;82.40;;;;;;5093775;28;20028;-67
2022/01/15 04:43:22;;;;;;;17.30;9.37;;;6.80;82.40;;;;;;5075876;28;20028;-67
2022/01/15 04:45:48;;;;;;;17.97;9.70;;;6.80;82.40;;;;;;5092729;28;20036;-67
2022/01/15 04:48:14;;;;;;;16.00;9.07;;;6.80;82.30;;;;;;5093464;28;20338;-67
2022/01/15 04:50:40;;;;;;;17.30;8.80;;;6.80;82.30;;;;;;5093871;28;20027;-67
2022/01/15 04:53:07;;;;;;;20.53;10.57;;;6.80;82.90;;;;;;5093430;28;20036;-67
2022/01/15 04:55:33;;;;;;;21.20;10.80;;;6.80;82.30;;;;;;5093562;28;20094;-67
2022/01/15 04:57:58;;;;;;;19.47;9.80;;;6.80;82.40;;;;;;5092316;28;20030;-67
2022/01/15 05:00:24;;;;;;;18.30;9.13;;;6.80;82.40;;;;;;5093634;28;20020;-67
2022/01/15 05:02:49;;;;;;;18.97;10.93;;;6.80;82.40;;;;;;5075142;28;20016;-67
2022/01/15 05:05:15;;;;;;;21.83;11.50;;;6.80;82.40;;;;;;5093542;28;20416;-67
2022/01/15 05:07:41;;;;;;;19.87;11.43;;;6.80;82.40;;;;;;5093502;28;20336;-67
2022/01/15 05:10:09;;;;;;;19.70;10.53;;;6.80;82.40;;;;;;5092053;28;20400;-67
2022/01/15 05:12:44;;;;;;;19.53;10.40;;;6.80;82.50;;;;;;5090408;28;20395;-67
2022/01/15 05:15:12;;;;;;;21.63;11.30;;;6.70;82.40;;;;;;5094120;28;20336;-67
2022/01/15 05:17:38;;;;;;;24.10;11.77;;;6.70;82.40;;;;;;5092627;28;20067;-67
2022/01/15 05:20:04;;;;;;;22.80;12.47;;;6.70;82.50;;;;;;5093579;28;20028;-67
2022/01/15 05:22:31;;;;;;;24.17;11.40;;;6.70;82.50;;;;;;5093913;28;20039;-67
2022/01/15 05:24:57;;;;;;;18.70;10.20;;;6.70;82.60;;;;;;5094216;28;20031;-67
2022/01/15 05:27:22;;;;;;;21.37;11.30;;;6.80;82.60;;;;;;5093555;28;20130;-67
2022/01/15 05:29:48;;;;;;;21.93;11.37;;;6.70;82.50;;;;;;5091637;28;20039;-67
2022/01/15 05:32:14;;;;;;;19.93;11.13;;;6.80;82.60;;;;;;5094710;28;20138;-67
2022/01/15 05:34:39;;;;;;;21.70;11.00;;;6.80;82.60;;;;;;5093683;28;20032;-67
2022/01/15 05:37:05;;;;;;;20.27;10.43;;;6.80;82.60;;;;;;5094589;28;20048;-67
2022/01/15 05:39:30;;;;;;;22.80;12.20;;;6.80;82.60;;;;;;5094167;28;20024;-67
2022/01/15 05:41:57;;;;;;;19.50;11.33;;;6.80;82.70;;;;;;5094714;28;20024;-67
2022/01/15 05:44:22;;;;;;;20.77;11.43;;;6.80;82.70;;;;;;5092821;28;20043;-67
2022/01/15 05:46:48;;;;;;;24.87;12.57;;;6.80;82.70;;;;;;5087846;28;20338;-67
2022/01/15 05:49:14;;;;;;;21.60;10.93;;;6.80;82.60;;;;;;5090693;28;20051;-67
2022/01/15 05:51:40;;;;;;;22.97;11.70;;;6.80;82.70;;;;;;5074359;28;20032;-67
2022/01/15 05:54:10;;;;;;;21.73;10.77;;;6.80;82.70;;;;;;5086000;28;20065;-67
2022/01/15 05:56:36;;;;;;;24.63;10.77;;;6.80;82.80;;;;;;5094089;28;20295;-67
2022/01/15 05:59:03;;;;;;;22.57;11.23;;;6.80;82.80;;;;;;5093221;28;20028;-67
2022/01/15 06:01:28;;;;;;;20.07;10.40;;;6.80;82.80;;;;;;5094404;28;20107;-67
2022/01/15 06:03:54;;;;;;;19.30;10.53;;;6.80;82.80;;;;;;5092682;28;20107;-67
2022/01/15 06:06:20;;;;;;;22.27;11.43;;;6.70;82.80;;;;;;5094090;28;20020;-67
2022/01/15 06:08:46;;;;;;;17.77;8.97;;;6.70;82.80;;;;;;5091159;28;20020;-67
2022/01/15 06:11:17;;;;;;;19.70;9.43;;;6.70;82.80;;;;;;5074242;28;20115;-67
2022/01/15 06:13:44;;;;;;;18.93;9.07;;;6.70;82.80;;;;;;5079857;28;20032;-67
2022/01/15 06:16:09;;;;;;;19.57;10.17;;;6.70;82.80;;;;;;5090694;28;20039;-67
2022/01/15 06:18:35;;;;;;;18.27;8.73;;;6.70;82.90;;;;;;5092271;28;20334;-67
2022/01/15 06:21:00;;;;;;;19.77;9.93;;;6.70;82.90;;;;;;5094159;28;20020;-67
2022/01/15 06:23:26;;;;;;;18.33;8.97;;;6.60;82.90;;;;;;5088476;28;20025;-67
2022/01/15 06:25:51;;;;;;;19.50;10.07;;;6.60;83.00;;;;;;5095110;28;20150;-67
2022/01/15 06:28:17;;;;;;;22.07;10.40;;;6.60;83.00;;;;;;5089174;28;20040;-67
2022/01/15 06:30:43;;;;;;;21.33;10.63;;;6.70;83.10;;;;;;5094228;28;20069;-67
2022/01/15 06:33:08;;;;;;;18.63;9.77;;;6.60;83.00;;;;;;5093439;28;20025;-67
2022/01/15 06:35:34;;;;;;;16.90;8.57;;;6.60;83.10;;;;;;5079789;28;20119;-67
2022/01/15 06:37:59;;;;;;;23.10;11.10;;;6.60;83.10;;;;;;5094460;28;20348;-67
2022/01/15 06:40:25;;;;;;;18.77;9.87;;;6.60;83.00;;;;;;5096182;28;20028;-67
2022/01/15 06:42:50;;;;;;;21.77;10.43;;;6.60;83.10;;;;;;5095432;28;20383;-67
2022/01/15 06:45:16;;;;;;;23.13;12.07;;;6.60;83.20;;;;;;5089810;28;20051;-67
2022/01/15 06:47:42;;;;;;;21.90;11.77;;;6.60;83.20;;;;;;5097370;28;20024;-67
2022/01/15 06:50:08;;;;;;;24.80;13.33;;;6.60;83.20;;;;;;5095698;28;20523;-67
2022/01/15 06:52:37;;;;;;;26.03;13.13;;;6.60;83.20;;;;;;5088201;28;20035;-67
2022/01/15 06:55:04;;;;;;;24.70;12.50;;;6.70;83.30;;;;;;5095847;28;20032;-67
2022/01/15 06:57:30;;;;;;;21.40;10.90;;;6.70;83.30;;;;;;5096066;28;20432;-67
2022/01/15 06:59:55;;;;;;;23.33;11.20;;;6.70;83.30;;;;;;5091204;28;20024;-67
2022/01/15 07:02:21;;;;;;;22.27;11.57;;;6.70;83.20;;;;;;5095704;28;20036;-67
2022/01/15 07:04:47;;;;;;;23.47;11.57;;;6.70;83.30;;;;;;5095637;28;20032;-67
2022/01/15 07:07:12;;;;;;;21.23;10.30;;;6.70;83.30;;;;;;5093591;28;20470;-67
2022/01/15 07:09:38;;;;;;;24.27;10.83;;;6.60;83.30;;;;;;5080598;28;20036;-67
2022/01/15 07:12:04;;;;;;;24.50;11.30;;;6.60;83.40;;;;;;5096702;28;20437;-67
2022/01/15 07:14:30;;;;;;;24.47;12.87;;;6.60;83.40;;;;;;5095070;28;20046;-68
2022/01/15 07:16:56;;;;;;;30.40;13.30;;;6.60;83.40;;;;;;5095974;28;20028;-67
2022/01/15 07:19:21;;;;;;;28.10;13.87;;;6.60;83.40;;;;;;5096873;28;20032;-67
2022/01/15 07:21:47;;;;;;;25.47;11.60;;;6.60;83.40;;;;;;5096940;28;20107;-67
2022/01/15 07:24:13;;;;;;;27.47;12.90;;;6.60;83.40;;;;;;5096133;28;20039;-67
2022/01/15 07:26:40;;;;;;;22.40;11.07;;;6.60;83.40;;;;;;5095752;28;20035;-67
2022/01/15 07:29:13;;;;;;;23.07;11.53;;;6.60;83.40;;;;;;5097010;28;20044;-67
2022/01/15 07:31:39;;;;;;;25.03;12.07;;;6.60;83.50;;;;;;5096086;28;20099;-67
2022/01/15 07:34:04;;;;;;;27.20;13.63;;;6.60;83.50;;;;;;5095640;28;20131;-67
2022/01/15 07:36:30;;;;;;;27.43;12.37;;;6.60;83.50;;;;;;5094163;28;20027;-67
2022/01/15 07:38:55;;;;;;;30.83;13.43;;;6.60;83.50;;;;;;5096038;28;20367;-67
2022/01/15 07:41:22;;;;;;;29.23;15.07;;;6.60;83.50;;;;;;5096218;28;20074;-67
2022/01/15 07:43:48;;;;;;;30.70;14.43;;;6.60;83.60;;;;;;5095703;28;20024;-67
2022/01/15 07:46:13;;;;;;;27.30;14.53;;;6.50;83.60;;;;;;5096563;28;20027;-67
2022/01/15 07:48:39;;;;;;;26.63;13.63;;;6.60;83.70;;;;;;5095777;28;20036;-67
2022/01/15 07:51:07;;;;;;;26.60;13.43;;;6.60;83.70;;;;;;5096449;28;20279;-67
2022/01/15 07:53:33;;;;;;;26.73;15.30;;;6.60;83.70;;;;;;5096503;28;20096;-67
2022/01/15 07:55:58;;;;;;;26.13;12.97;;;6.60;83.70;;;;;;5095811;28;20031;-67
2022/01/15 07:58:24;;;;;;;33.03;15.80;;;6.60;83.70;;;;;;5095636;28;20032;-67
2022/01/15 08:00:50;;;;;;;26.47;13.20;;;6.60;83.70;;;;;;5094182;28;20502;-67
2022/01/15 08:03:16;;;;;;;29.90;15.33;;;6.60;83.70;;;;;;5094955;28;20020;-67
2022/01/15 08:05:41;;;;;;;27.10;13.43;;;6.70;83.80;;;;;;5095413;28;20035;-67
2022/01/15 08:08:07;;;;;;;28.00;14.53;;;6.80;83.60;;;;;;5094542;28;20479;-69
2022/01/15 08:10:33;;;;;;;35.03;17.33;;;6.90;83.40;;;;;;5092843;28;20081;-69
2022/01/15 08:12:59;;;;;;;36.20;18.93;;;6.90;83.20;;;;;;5095924;28;20032;-69
2022/01/15 08:15:25;;;;;;;28.93;15.13;;;6.90;83.30;;;;;;5094713;28;20131;-69
2022/01/15 08:17:51;;;;;;;34.93;17.23;;;6.80;83.30;;;;;;5093036;28;20356;-69
2022/01/15 08:20:17;;;;;;;35.47;16.93;;;6.80;83.40;;;;;;5094106;28;20115;-69
2022/01/15 08:22:45;;;;;;;34.37;16.70;;;6.80;83.50;;;;;;5095109;28;20486;-68
2022/01/15 08:25:12;;;;;;;35.40;18.53;;;6.70;83.50;;;;;;5094171;28;20024;-67
2022/01/15 08:27:38;;;;;;;35.67;17.30;;;6.70;83.50;;;;;;5076715;28;20061;-67
2022/01/15 08:30:05;;;;;;;33.57;17.73;;;6.70;83.50;;;;;;5094789;28;20035;-67
2022/01/15 08:32:31;;;;;;;37.10;17.17;;;6.70;83.50;;;;;;5095943;28;20039;-67
2022/01/15 08:34:56;;;;;;;34.70;16.83;;;6.70;83.50;;;;;;5095798;28;20035;-67
2022/01/15 08:37:22;;;;;;;37.40;17.70;;;6.70;83.50;;;;;;5094661;28;20042;-67
2022/01/15 08:39:48;;;;;;;37.13;18.90;;;6.70;83.60;;;;;;5096471;28;20029;-68
2022/01/15 08:42:13;;;;;;;36.77;18.20;;;6.70;83.60;;;;;;5096187;28;20069;-68
2022/01/15 08:44:42;;;;;;;42.30;18.53;;;6.70;83.70;;;;;;5095678;28;20469;-68
2022/01/15 08:47:08;;;;;;;39.40;20.23;;;6.70;83.70;;;;;;5095985;28;20028;-68
2022/01/15 08:49:35;;;;;;;45.77;21.43;;;6.70;83.60;;;;;;5094818;28;20043;-68
2022/01/15 08:52:00;;;;;;;37.50;17.83;;;6.70;83.60;;;;;;5095838;28;20032;-68
2022/01/15 08:54:26;;;;;;;44.60;20.67;;;6.80;83.60;;;;;;5094141;28;20024;-68
2022/01/15 08:56:51;;;;;;;40.77;19.43;;;6.80;83.60;;;;;;5095744;28;20077;-67
2022/01/15 08:59:18;;;;;;;44.37;19.70;;;6.70;83.50;;;;;;5095704;28;20059;-68
2022/01/15 09:01:44;;;;;;;43.13;18.60;;;6.70;83.60;;;;;;5092746;28;20052;-67
2022/01/15 09:04:10;;;;;;;39.53;18.10;;;6.80;83.70;;;;;;5093107;28;20048;-67
2022/01/15 09:06:39;;;;;;;39.17;20.20;;;6.80;83.70;;;;;;5093389;28;20369;-68
2022/01/15 09:09:05;;;;;;;40.60;19.00;;;6.70;83.70;;;;;;5094501;28;20051;-68
2022/01/15 09:11:31;;;;;;;34.63;17.37;;;6.80;83.80;;;;;;5093096;28;20071;-68
2022/01/15 09:13:56;;;;;;;41.77;18.70;;;6.80;83.70;;;;;;5085978;28;20044;-67
2022/01/15 09:16:22;;;;;;;35.67;18.20;;;6.80;83.70;;;;;;5093577;28;20462;-68
2022/01/15 09:18:47;;;;;;;33.60;17.20;;;6.70;83.70;;;;;;5094068;28;20024;-67
2022/01/15 09:21:13;;;;;;;36.10;17.23;;;6.80;83.70;;;;;;5088288;28;20071;-67
2022/01/15 09:23:39;;;;;;;39.07;19.13;;;6.70;83.70;;;;;;5093687;28;20016;-67
2022/01/15 09:26:06;;;;;;;43.33;22.13;;;6.70;83.70;;;;;;5094407;28;20024;-67
2022/01/15 09:31:16;;;;;;;42.53;20.10;;;6.70;83.80;;;;;;5094588;28;20452;-68
2022/01/15 09:33:42;;;;;;;35.87;17.80;;;6.70;83.70;;;;;;5094707;28;20032;-67
2022/01/15 09:36:08;;;;;;;38.00;17.77;;;6.80;83.80;;;;;;5093335;28;20088;-67
2022/01/15 09:38:33;;;;;;;37.43;16.70;;;6.80;83.80;;;;;;5104797;28;20333;-66
2022/01/15 09:40:59;;;;;;;39.37;18.43;;;6.70;83.70;;;;;;5095068;28;20410;-66
2022/01/15 09:43:25;;;;;;;35.93;14.87;;;6.70;83.80;;;;;;5093265;28;20103;-66
2022/01/15 09:45:51;;;;;;;44.30;18.50;;;6.70;83.80;;;;;;5095843;28;20409;-67
2022/01/15 09:48:18;;;;;;;39.03;18.30;;;6.70;83.80;;;;;;5092084;28;20035;-68
2022/01/15 09:50:46;;;;;;;32.53;15.30;;;6.70;83.80;;;;;;5093128;28;20063;-68
2022/01/15 09:53:16;;;;;;;30.23;14.57;;;6.70;83.80;;;;;;5091892;28;20035;-64
2022/01/15 09:55:43;;;;;;;37.87;15.13;;;6.70;83.80;;;;;;5094365;28;20108;-64
2022/01/15 09:58:09;;;;;;;31.17;14.67;;;6.70;83.80;;;;;;5093965;28;20020;-64
2022/01/15 10:00:35;;;;;;;29.70;13.87;;;6.70;83.80;;;;;;5093350;28;20043;-64
2022/01/15 10:03:01;;;;;;;29.53;15.03;;;6.80;83.80;;;;;;5094299;28;20023;-63
2022/01/15 10:05:26;;;;;;;27.47;14.17;;;6.80;83.80;;;;;;5094940;28;20036;-63
2022/01/15 10:07:55;;;;;;;26.23;13.87;;;6.70;83.80;;;;;;5076243;28;20024;-63
2022/01/15 10:10:22;;;;;;;32.80;15.10;;;6.70;83.80;;;;;;5094514;28;20417;-64
2022/01/15 10:12:47;;;;;;;40.13;15.33;;;6.80;83.80;;;;;;5094161;28;20032;-64
2022/01/15 10:15:16;;;;;;;34.93;14.63;;;6.80;83.80;;;;;;5093928;28;20081;-63
2022/01/15 10:17:43;;;;;;;32.23;14.33;;;6.70;83.70;;;;;;5093121;28;20034;-63
2022/01/15 10:20:14;;;;;;;29.83;15.47;;;6.70;83.80;;;;;;5094777;28;20020;-63
2022/01/15 10:22:42;;;;;;;36.65;17.98;;;6.70;83.80;;;;;;5093875;28;20353;-63
2022/01/15 10:25:14;;;;;;;31.77;15.90;;;6.70;83.70;;;;;;5092872;28;20438;-63
2022/01/15 10:27:41;;;;;;;27.10;14.18;;;6.80;83.80;;;;;;5074274;28;20048;-64
2022/01/15 10:30:09;;;;;;;36.13;17.70;;;6.80;83.80;;;;;;5105415;28;20032;-63
2022/01/15 10:32:37;;;;;;;28.53;14.07;;;6.80;83.80;;;;;;5094236;28;20463;-63
2022/01/15 10:35:15;;;;;;;32.60;16.77;;;6.80;84.40;;;;;;5094582;28;20111;-64
2022/01/15 10:37:56;;;;;;;33.97;16.43;;;6.80;83.70;;;;;;5094438;28;20103;-64
2022/01/15 10:40:27;;;;;;;33.65;16.63;;;6.70;83.80;;;;;;5094135;28;20043;-63
2022/01/15 10:42:56;;;;;;;34.90;17.35;;;6.70;83.80;;;;;;5089420;28;20456;-64
2022/01/15 10:45:23;;;;;;;33.43;16.97;;;6.80;83.80;;;;;;5081304;28;20039;-64
2022/01/15 10:47:52;;;;;;;33.27;16.37;;;6.80;83.90;;;;;;5086093;28;20032;-64
2022/01/15 10:50:38;;;;;;;42.93;17.30;;;6.80;83.80;;;;;;5093037;28;20032;-64
2022/01/15 10:53:10;;;;;;;29.17;15.27;;;6.80;83.60;;;;;;5092299;28;20420;-64
2022/01/15 10:55:37;;;;;;;28.90;13.80;;;6.80;83.70;;;;;;5093548;28;20020;-65
2022/01/15 10:58:06;;;;;;;31.57;16.87;;;6.90;83.70;;;;;;5093901;28;20036;-64
2022/01/15 11:00:41;;;;;;;30.13;15.00;;;6.90;83.60;;;;;;5094047;28;20093;-65
2022/01/15 11:03:17;;;;;;;26.53;14.33;;;6.90;83.50;;;;;;5094178;28;20024;-64
2022/01/15 11:05:52;;;;;;;36.37;17.17;;;6.90;83.50;;;;;;5094107;28;20044;-63
2022/01/15 11:08:22;;;;;;;37.93;16.40;;;7.00;83.50;;;;;;5093175;28;20032;-65
2022/01/15 11:10:56;;;;;;;39.80;17.13;;;6.90;83.40;;;;;;5089185;28;20028;-63
2022/01/15 11:13:30;;;;;;;30.60;15.33;;;7.00;83.50;;;;;;5097424;28;20423;-63
2022/01/15 11:16:00;;;;;;;29.93;13.33;;;6.90;83.30;;;;;;5097888;28;20517;-63
2022/01/15 11:18:31;;;;;;;29.13;14.80;;;6.90;83.30;;;;;;5096870;28;20032;-63
2022/01/15 11:21:00;;;;;;;33.47;16.17;;;6.90;83.30;;;;;;5097735;28;20060;-64
2022/01/15 11:23:28;;;;;;;30.33;14.47;;;6.80;83.40;;;;;;5097468;28;20340;-64
2022/01/15 11:25:58;;;;;;;41.23;18.13;;;6.80;83.40;;;;;;5077775;28;20099;-64
2022/01/15 11:28:27;;;;;;;34.27;16.87;;;6.80;83.40;;;;;;5095933;28;20414;-64
2022/01/15 11:30:54;;;;;;;28.93;14.87;;;6.80;83.40;;;;;;5097722;28;20047;-65
2022/01/15 11:33:27;;;;;;;36.17;15.00;;;6.80;83.40;;;;;;5096993;28;20114;-64
2022/01/15 11:35:53;;;;;;;42.13;17.53;;;6.80;83.30;;;;;;5095908;28;20085;-64
2022/01/15 11:38:37;;;;;;;33.30;16.37;;;6.80;83.30;;;;;;5096732;28;20020;-66
2022/01/15 11:41:03;;;;;;;32.50;14.20;;;6.80;83.30;;;;;;5094303;28;20032;-64
2022/01/15 11:43:33;;;;;;;33.20;15.27;;;6.80;83.30;;;;;;5095788;28;20020;-64
2022/01/15 11:46:04;;;;;;;37.20;17.50;;;6.80;83.30;;;;;;5097326;28;20111;-64
2022/01/15 11:48:35;;;;;;;30.20;14.88;;;6.80;83.30;;;;;;5112384;28;20043;-64
2022/01/15 11:51:13;;;;;;;31.33;16.38;;;6.80;83.30;;;;;;5113264;28;20055;-64
2022/01/15 11:53:54;;;;;;;34.27;15.20;;;6.80;83.20;;;;;;5097003;28;20123;-64
2022/01/15 11:56:22;;;;;;;32.15;14.52;;;6.80;83.20;;;;;;5096415;28;20364;-64
2022/01/15 11:58:49;;;;;;;32.73;14.70;;;6.80;83.10;;;;;;5096891;28;20039;-65
2022/01/15 12:01:36;;;;;;;29.93;14.30;;;6.80;83.20;;;;;;5096404;28;20024;-64
2022/01/15 12:04:28;;;;;;;26.97;13.67;;;6.80;83.00;;;;;;5096486;28;20028;-64
2022/01/15 12:07:06;;;;;;;32.38;14.52;;;6.80;83.00;;;;;;5095030;28;20035;-64
2022/01/15 12:09:39;;;;;;;32.80;14.60;;;6.80;82.90;;;;;;5095671;28;20031;-64
2022/01/15 12:12:31;;;;;;;37.63;15.97;;;6.70;82.90;;;;;;5096523;28;20035;-64
2022/01/15 12:14:56;;;;;;;33.65;17.63;;;6.70;82.90;;;;;;5090675;28;20058;-63
2022/01/15 12:17:39;;;;;;;34.40;15.87;;;6.70;83.00;;;;;;5096147;28;20111;-63
2022/01/15 12:20:27;;;;;;;31.00;15.30;;;6.70;83.00;;;;;;5096318;28;20068;-63
2022/01/15 12:22:58;;;;;;;31.67;14.97;;;6.80;83.00;;;;;;5095800;28;20517;-64
2022/01/15 12:25:26;;;;;;;33.73;14.30;;;6.70;82.90;;;;;;5096344;28;20059;-64
2022/01/15 12:28:03;;;;;;;33.20;15.00;;;6.70;82.80;;;;;;5095956;28;20044;-64
2022/01/15 12:30:30;;;;;;;29.10;13.70;;;6.70;82.80;;;;;;5095868;28;20032;-64
2022/01/15 12:33:00;;;;;;;29.87;15.57;;;6.70;82.80;;;;;;5096541;28;20032;-64
2022/01/15 12:35:30;;;;;;;34.27;16.27;;;6.70;82.80;;;;;;5096020;28;20040;-64
2022/01/15 12:38:02;;;;;;;30.67;15.00;;;6.70;82.80;;;;;;5094945;28;20357;-64
2022/01/15 12:40:34;;;;;;;28.90;14.83;;;6.70;82.80;;;;;;5095852;28;20024;-64
2022/01/15 12:43:02;;;;;;;33.20;16.15;;;6.70;82.70;;;;;;5095214;28;20085;-64
2022/01/15 12:45:28;;;;;;;34.90;16.87;;;6.60;82.60;;;;;;5096419;28;20066;-64
2022/01/15 12:47:55;;;;;;;35.20;17.40;;;6.50;82.70;;;;;;5096232;28;20398;-64
2022/01/15 12:50:21;;;;;;;37.43;16.23;;;6.60;82.70;;;;;;5094427;28;20093;-64
2022/01/15 12:52:57;;;;;;;36.17;18.83;;;6.60;82.70;;;;;;5095983;28;20028;-64
2022/01/15 12:55:32;;;;;;;42.10;20.83;;;6.60;82.50;;;;;;5094615;28;20364;-64
2022/01/15 12:57:57;;;;;;;42.83;20.50;;;6.60;82.50;;;;;;5094609;28;20077;-64
2022/01/15 13:00:25;;;;;;;44.33;21.83;;;6.60;82.40;;;;;;5095395;28;20020;-64